sensor_id;sensor_type;location;lat;lon;timestamp;P1;durP1;ratioP1;P2;durP2;ratioP2
12623;SDS011;6377;42.836;23.998;2022-11-02T00:00:10;13.13;;;6.47;;
12623;SDS011;6377;42.836;23.998;2022-11-02T00:02:39;9.77;;;5.80;;
12623;SDS011;6377;42.836;23.998;2022-11-02T00:05:11;14.80;;;6.43;;
12623;SDS011;6377;42.836;23.998;2022-11-02T00:07:39;11.97;;;5.53;;
12623;SDS011;6377;42.836;23.998;2022-11-02T00:10:07;10.13;;;5.37;;
12623;SDS011;6377;42.836;23.998;2022-11-02T00:12:35;9.53;;;5.37;;
12623;SDS011;6377;42.836;23.998;2022-11-02T00:15:04;11.63;;;5.27;;
12623;SDS011;6377;42.836;23.998;2022-11-02T00:17:32;11.73;;;5.87;;
12623;SDS011;6377;42.836;23.998;2022-11-02T00:20:02;11.73;;;6.17;;
12623;SDS011;6377;42.836;23.998;2022-11-02T00:22:31;16.03;;;6.43;;
12623;SDS011;6377;42.836;23.998;2022-11-02T00:25:00;11.50;;;6.53;;
12623;SDS011;6377;42.836;23.998;2022-11-02T00:27:29;11.23;;;5.63;;
12623;SDS011;6377;42.836;23.998;2022-11-02T00:29:57;12.10;;;4.97;;
12623;SDS011;6377;42.836;23.998;2022-11-02T00:32:25;9.37;;;4.20;;
12623;SDS011;6377;42.836;23.998;2022-11-02T00:34:52;9.17;;;4.10;;
12623;SDS011;6377;42.836;23.998;2022-11-02T00:37:20;11.73;;;4.90;;
12623;SDS011;6377;42.836;23.998;2022-11-02T00:39:49;11.20;;;4.67;;
12623;SDS011;6377;42.836;23.998;2022-11-02T00:42:16;10.33;;;4.33;;
12623;SDS011;6377;42.836;23.998;2022-11-02T00:44:44;11.67;;;5.23;;
12623;SDS011;6377;42.836;23.998;2022-11-02T00:47:11;12.67;;;4.47;;
12623;SDS011;6377;42.836;23.998;2022-11-02T00:49:39;14.53;;;5.20;;
12623;SDS011;6377;42.836;23.998;2022-11-02T00:52:06;10.97;;;4.63;;
12623;SDS011;6377;42.836;23.998;2022-11-02T00:54:34;10.80;;;4.60;;
12623;SDS011;6377;42.836;23.998;2022-11-02T00:57:03;11.43;;;4.20;;
12623;SDS011;6377;42.836;23.998;2022-11-02T00:59:30;8.33;;;4.03;;
12623;SDS011;6377;42.836;23.998;2022-11-02T01:01:58;11.43;;;4.60;;
12623;SDS011;6377;42.836;23.998;2022-11-02T01:04:25;9.27;;;3.77;;
12623;SDS011;6377;42.836;23.998;2022-11-02T01:06:53;6.60;;;3.60;;
12623;SDS011;6377;42.836;23.998;2022-11-02T01:09:20;12.73;;;3.97;;
12623;SDS011;6377;42.836;23.998;2022-11-02T01:11:48;13.13;;;3.97;;
12623;SDS011;6377;42.836;23.998;2022-11-02T01:14:18;10.93;;;3.77;;
12623;SDS011;6377;42.836;23.998;2022-11-02T01:16:46;8.40;;;4.07;;
12623;SDS011;6377;42.836;23.998;2022-11-02T01:19:14;9.33;;;4.10;;
12623;SDS011;6377;42.836;23.998;2022-11-02T01:21:41;8.93;;;4.17;;
12623;SDS011;6377;42.836;23.998;2022-11-02T01:24:09;10.27;;;4.63;;
12623;SDS011;6377;42.836;23.998;2022-11-02T01:26:36;13.90;;;5.80;;
12623;SDS011;6377;42.836;23.998;2022-11-02T01:29:04;12.07;;;6.90;;
12623;SDS011;6377;42.836;23.998;2022-11-02T01:31:33;16.13;;;8.50;;
12623;SDS011;6377;42.836;23.998;2022-11-02T01:34:00;16.50;;;8.17;;
12623;SDS011;6377;42.836;23.998;2022-11-02T01:36:28;28.07;;;12.20;;
12623;SDS011;6377;42.836;23.998;2022-11-02T01:38:55;24.30;;;10.93;;
12623;SDS011;6377;42.836;23.998;2022-11-02T01:41:22;20.20;;;11.00;;
12623;SDS011;6377;42.836;23.998;2022-11-02T01:43:52;23.33;;;15.90;;
12623;SDS011;6377;42.836;23.998;2022-11-02T01:46:21;22.90;;;13.30;;
12623;SDS011;6377;42.836;23.998;2022-11-02T01:48:53;12.50;;;6.23;;
12623;SDS011;6377;42.836;23.998;2022-11-02T01:51:24;11.60;;;4.97;;
12623;SDS011;6377;42.836;23.998;2022-11-02T01:53:55;12.33;;;5.23;;
12623;SDS011;6377;42.836;23.998;2022-11-02T01:56:26;21.77;;;13.50;;
12623;SDS011;6377;42.836;23.998;2022-11-02T01:58:57;24.53;;;14.57;;
12623;SDS011;6377;42.836;23.998;2022-11-02T02:01:28;13.50;;;5.97;;
12623;SDS011;6377;42.836;23.998;2022-11-02T02:03:58;10.77;;;4.40;;
12623;SDS011;6377;42.836;23.998;2022-11-02T02:06:27;8.20;;;3.93;;
12623;SDS011;6377;42.836;23.998;2022-11-02T02:08:55;7.87;;;3.50;;
12623;SDS011;6377;42.836;23.998;2022-11-02T02:11:27;6.90;;;3.80;;
12623;SDS011;6377;42.836;23.998;2022-11-02T02:13:56;9.13;;;3.83;;
12623;SDS011;6377;42.836;23.998;2022-11-02T02:16:31;8.30;;;3.30;;
12623;SDS011;6377;42.836;23.998;2022-11-02T02:19:26;10.77;;;4.50;;
12623;SDS011;6377;42.836;23.998;2022-11-02T02:22:07;9.67;;;5.47;;
12623;SDS011;6377;42.836;23.998;2022-11-02T02:24:47;13.07;;;4.60;;
12623;SDS011;6377;42.836;23.998;2022-11-02T02:27:26;9.93;;;4.73;;
12623;SDS011;6377;42.836;23.998;2022-11-02T02:30:02;8.33;;;3.17;;
12623;SDS011;6377;42.836;23.998;2022-11-02T02:32:40;9.07;;;3.30;;
12623;SDS011;6377;42.836;23.998;2022-11-02T02:35:17;7.80;;;3.50;;
12623;SDS011;6377;42.836;23.998;2022-11-02T02:37:52;5.17;;;2.93;;
12623;SDS011;6377;42.836;23.998;2022-11-02T02:40:24;8.40;;;3.33;;
12623;SDS011;6377;42.836;23.998;2022-11-02T02:42:58;11.97;;;3.27;;
12623;SDS011;6377;42.836;23.998;2022-11-02T02:45:34;7.33;;;3.10;;
12623;SDS011;6377;42.836;23.998;2022-11-02T02:48:06;7.73;;;2.70;;
12623;SDS011;6377;42.836;23.998;2022-11-02T02:50:39;9.90;;;3.80;;
12623;SDS011;6377;42.836;23.998;2022-11-02T02:53:12;8.67;;;3.53;;
12623;SDS011;6377;42.836;23.998;2022-11-02T02:55:42;10.60;;;4.03;;
12623;SDS011;6377;42.836;23.998;2022-11-02T02:58:12;9.23;;;4.00;;
12623;SDS011;6377;42.836;23.998;2022-11-02T03:00:46;6.77;;;3.73;;
12623;SDS011;6377;42.836;23.998;2022-11-02T03:03:16;14.33;;;6.03;;
12623;SDS011;6377;42.836;23.998;2022-11-02T03:05:54;8.20;;;3.57;;
12623;SDS011;6377;42.836;23.998;2022-11-02T03:08:28;11.13;;;5.20;;
12623;SDS011;6377;42.836;23.998;2022-11-02T03:10:58;12.43;;;4.70;;
12623;SDS011;6377;42.836;23.998;2022-11-02T03:13:39;10.17;;;4.20;;
12623;SDS011;6377;42.836;23.998;2022-11-02T03:16:16;7.20;;;3.13;;
12623;SDS011;6377;42.836;23.998;2022-11-02T03:19:03;7.87;;;3.23;;
12623;SDS011;6377;42.836;23.998;2022-11-02T03:21:40;10.93;;;3.90;;
12623;SDS011;6377;42.836;23.998;2022-11-02T03:24:11;10.60;;;4.17;;
12623;SDS011;6377;42.836;23.998;2022-11-02T03:26:44;9.20;;;3.63;;
12623;SDS011;6377;42.836;23.998;2022-11-02T03:29:15;13.03;;;3.70;;
12623;SDS011;6377;42.836;23.998;2022-11-02T03:31:51;6.07;;;3.70;;
12623;SDS011;6377;42.836;23.998;2022-11-02T03:34:23;8.47;;;3.50;;
12623;SDS011;6377;42.836;23.998;2022-11-02T03:36:55;10.60;;;4.00;;
12623;SDS011;6377;42.836;23.998;2022-11-02T03:39:28;9.23;;;4.03;;
12623;SDS011;6377;42.836;23.998;2022-11-02T03:42:00;13.77;;;4.87;;
12623;SDS011;6377;42.836;23.998;2022-11-02T03:44:30;7.93;;;3.93;;
12623;SDS011;6377;42.836;23.998;2022-11-02T03:47:04;10.47;;;4.83;;
12623;SDS011;6377;42.836;23.998;2022-11-02T03:49:37;10.67;;;6.53;;
12623;SDS011;6377;42.836;23.998;2022-11-02T03:52:07;15.70;;;7.07;;
12623;SDS011;6377;42.836;23.998;2022-11-02T03:54:41;19.87;;;6.60;;
12623;SDS011;6377;42.836;23.998;2022-11-02T03:57:17;17.93;;;7.23;;
12623;SDS011;6377;42.836;23.998;2022-11-02T03:59:47;15.07;;;8.63;;
12623;SDS011;6377;42.836;23.998;2022-11-02T04:02:17;17.27;;;10.00;;
12623;SDS011;6377;42.836;23.998;2022-11-02T04:04:48;19.23;;;10.00;;
12623;SDS011;6377;42.836;23.998;2022-11-02T04:07:18;16.83;;;7.87;;
12623;SDS011;6377;42.836;23.998;2022-11-02T04:09:51;11.20;;;7.13;;
12623;SDS011;6377;42.836;23.998;2022-11-02T04:12:18;13.40;;;7.20;;
12623;SDS011;6377;42.836;23.998;2022-11-02T04:15:03;13.17;;;7.60;;
12623;SDS011;6377;42.836;23.998;2022-11-02T04:17:32;20.50;;;8.13;;
12623;SDS011;6377;42.836;23.998;2022-11-02T04:20:17;15.83;;;6.83;;
12623;SDS011;6377;42.836;23.998;2022-11-02T04:22:44;14.13;;;7.93;;
12623;SDS011;6377;42.836;23.998;2022-11-02T04:25:29;15.20;;;6.97;;
12623;SDS011;6377;42.836;23.998;2022-11-02T04:28:04;13.57;;;7.63;;
12623;SDS011;6377;42.836;23.998;2022-11-02T04:30:33;10.37;;;6.00;;
12623;SDS011;6377;42.836;23.998;2022-11-02T04:33:02;9.33;;;4.80;;
12623;SDS011;6377;42.836;23.998;2022-11-02T04:35:43;15.03;;;5.57;;
12623;SDS011;6377;42.836;23.998;2022-11-02T04:38:10;10.37;;;5.13;;
12623;SDS011;6377;42.836;23.998;2022-11-02T04:40:55;11.67;;;5.00;;
12623;SDS011;6377;42.836;23.998;2022-11-02T04:43:38;12.57;;;5.47;;
12623;SDS011;6377;42.836;23.998;2022-11-02T04:46:05;13.17;;;5.93;;
12623;SDS011;6377;42.836;23.998;2022-11-02T04:48:34;11.17;;;5.33;;
12623;SDS011;6377;42.836;23.998;2022-11-02T04:51:02;12.80;;;6.47;;
12623;SDS011;6377;42.836;23.998;2022-11-02T04:53:29;13.20;;;5.77;;
12623;SDS011;6377;42.836;23.998;2022-11-02T04:55:56;9.97;;;5.53;;
12623;SDS011;6377;42.836;23.998;2022-11-02T04:58:24;12.17;;;6.20;;
12623;SDS011;6377;42.836;23.998;2022-11-02T05:00:51;16.10;;;7.27;;
12623;SDS011;6377;42.836;23.998;2022-11-02T05:03:19;13.07;;;6.70;;
12623;SDS011;6377;42.836;23.998;2022-11-02T05:05:48;11.60;;;6.20;;
12623;SDS011;6377;42.836;23.998;2022-11-02T05:08:20;11.37;;;6.33;;
12623;SDS011;6377;42.836;23.998;2022-11-02T05:10:47;12.67;;;6.00;;
12623;SDS011;6377;42.836;23.998;2022-11-02T05:13:15;13.77;;;6.60;;
12623;SDS011;6377;42.836;23.998;2022-11-02T05:15:42;17.13;;;6.83;;
12623;SDS011;6377;42.836;23.998;2022-11-02T05:18:09;25.90;;;13.63;;
12623;SDS011;6377;42.836;23.998;2022-11-02T05:20:37;27.77;;;14.77;;
12623;SDS011;6377;42.836;23.998;2022-11-02T05:23:06;30.50;;;16.17;;
12623;SDS011;6377;42.836;23.998;2022-11-02T05:25:33;24.07;;;11.13;;
12623;SDS011;6377;42.836;23.998;2022-11-02T05:28:01;30.23;;;16.17;;
12623;SDS011;6377;42.836;23.998;2022-11-02T05:30:28;30.37;;;16.67;;
12623;SDS011;6377;42.836;23.998;2022-11-02T05:32:56;30.87;;;17.60;;
12623;SDS011;6377;42.836;23.998;2022-11-02T05:35:23;27.87;;;14.53;;
12623;SDS011;6377;42.836;23.998;2022-11-02T05:37:53;32.23;;;15.97;;
12623;SDS011;6377;42.836;23.998;2022-11-02T05:40:23;26.70;;;16.07;;
12623;SDS011;6377;42.836;23.998;2022-11-02T05:42:50;31.17;;;16.93;;
12623;SDS011;6377;42.836;23.998;2022-11-02T05:45:17;31.43;;;17.53;;
12623;SDS011;6377;42.836;23.998;2022-11-02T05:47:45;33.80;;;19.63;;
12623;SDS011;6377;42.836;23.998;2022-11-02T05:50:12;30.33;;;16.97;;
12623;SDS011;6377;42.836;23.998;2022-11-02T05:52:40;29.37;;;14.60;;
12623;SDS011;6377;42.836;23.998;2022-11-02T05:55:08;25.40;;;13.87;;
12623;SDS011;6377;42.836;23.998;2022-11-02T05:57:37;26.60;;;13.40;;
12623;SDS011;6377;42.836;23.998;2022-11-02T06:00:05;23.37;;;11.73;;
12623;SDS011;6377;42.836;23.998;2022-11-02T06:02:33;27.20;;;13.90;;
12623;SDS011;6377;42.836;23.998;2022-11-02T06:05:01;34.57;;;18.17;;
12623;SDS011;6377;42.836;23.998;2022-11-02T06:07:29;23.07;;;12.53;;
12623;SDS011;6377;42.836;23.998;2022-11-02T06:09:56;23.47;;;11.47;;
12623;SDS011;6377;42.836;23.998;2022-11-02T06:12:24;23.93;;;13.47;;
12623;SDS011;6377;42.836;23.998;2022-11-02T06:14:52;30.73;;;16.57;;
12623;SDS011;6377;42.836;23.998;2022-11-02T06:17:20;26.77;;;17.07;;
12623;SDS011;6377;42.836;23.998;2022-11-02T06:19:47;23.70;;;14.50;;
12623;SDS011;6377;42.836;23.998;2022-11-02T06:22:15;23.87;;;14.43;;
12623;SDS011;6377;42.836;23.998;2022-11-02T06:24:42;22.83;;;13.20;;
12623;SDS011;6377;42.836;23.998;2022-11-02T06:27:10;23.17;;;14.80;;
12623;SDS011;6377;42.836;23.998;2022-11-02T06:29:38;29.23;;;14.17;;
12623;SDS011;6377;42.836;23.998;2022-11-02T06:32:07;27.33;;;14.43;;
12623;SDS011;6377;42.836;23.998;2022-11-02T06:34:34;32.17;;;17.33;;
12623;SDS011;6377;42.836;23.998;2022-11-02T06:37:01;37.80;;;24.43;;
12623;SDS011;6377;42.836;23.998;2022-11-02T06:39:29;31.40;;;18.00;;
12623;SDS011;6377;42.836;23.998;2022-11-02T06:41:56;31.87;;;14.07;;
12623;SDS011;6377;42.836;23.998;2022-11-02T06:44:24;20.67;;;12.40;;
12623;SDS011;6377;42.836;23.998;2022-11-02T06:46:52;27.93;;;15.27;;
12623;SDS011;6377;42.836;23.998;2022-11-02T06:49:21;24.20;;;14.83;;
12623;SDS011;6377;42.836;23.998;2022-11-02T06:51:49;23.33;;;13.57;;
12623;SDS011;6377;42.836;23.998;2022-11-02T06:54:17;26.07;;;14.30;;
12623;SDS011;6377;42.836;23.998;2022-11-02T06:56:44;25.67;;;15.20;;
12623;SDS011;6377;42.836;23.998;2022-11-02T06:59:12;25.20;;;14.53;;
12623;SDS011;6377;42.836;23.998;2022-11-02T07:01:40;20.23;;;12.47;;
12623;SDS011;6377;42.836;23.998;2022-11-02T07:04:07;24.03;;;14.27;;
12623;SDS011;6377;42.836;23.998;2022-11-02T07:06:36;31.30;;;19.77;;
12623;SDS011;6377;42.836;23.998;2022-11-02T07:09:04;28.00;;;18.17;;
12623;SDS011;6377;42.836;23.998;2022-11-02T07:11:31;30.93;;;16.07;;
12623;SDS011;6377;42.836;23.998;2022-11-02T07:13:59;26.17;;;14.10;;
12623;SDS011;6377;42.836;23.998;2022-11-02T07:16:26;23.63;;;15.90;;
12623;SDS011;6377;42.836;23.998;2022-11-02T07:18:55;26.30;;;13.70;;
12623;SDS011;6377;42.836;23.998;2022-11-02T07:21:22;35.80;;;19.93;;
12623;SDS011;6377;42.836;23.998;2022-11-02T07:23:51;31.50;;;20.17;;
12623;SDS011;6377;42.836;23.998;2022-11-02T07:26:19;38.27;;;21.63;;
12623;SDS011;6377;42.836;23.998;2022-11-02T07:28:47;26.47;;;15.53;;
12623;SDS011;6377;42.836;23.998;2022-11-02T07:31:14;24.53;;;13.60;;
12623;SDS011;6377;42.836;23.998;2022-11-02T07:33:42;18.30;;;11.27;;
12623;SDS011;6377;42.836;23.998;2022-11-02T07:36:10;28.43;;;12.70;;
12623;SDS011;6377;42.836;23.998;2022-11-02T07:38:37;20.07;;;9.97;;
12623;SDS011;6377;42.836;23.998;2022-11-02T07:41:06;17.03;;;10.60;;
12623;SDS011;6377;42.836;23.998;2022-11-02T07:43:34;20.10;;;10.00;;
12623;SDS011;6377;42.836;23.998;2022-11-02T07:46:02;18.70;;;11.93;;
12623;SDS011;6377;42.836;23.998;2022-11-02T07:48:30;25.27;;;11.83;;
12623;SDS011;6377;42.836;23.998;2022-11-02T07:50:58;24.30;;;12.20;;
12623;SDS011;6377;42.836;23.998;2022-11-02T07:53:25;21.43;;;11.60;;
12623;SDS011;6377;42.836;23.998;2022-11-02T07:55:53;24.00;;;10.57;;
12623;SDS011;6377;42.836;23.998;2022-11-02T07:58:22;16.60;;;8.73;;
12623;SDS011;6377;42.836;23.998;2022-11-02T08:00:49;19.67;;;7.70;;
12623;SDS011;6377;42.836;23.998;2022-11-02T08:03:18;23.67;;;10.10;;
12623;SDS011;6377;42.836;23.998;2022-11-02T08:05:46;22.40;;;11.50;;
12623;SDS011;6377;42.836;23.998;2022-11-02T08:08:16;18.87;;;9.37;;
12623;SDS011;6377;42.836;23.998;2022-11-02T08:10:45;14.80;;;8.57;;
12623;SDS011;6377;42.836;23.998;2022-11-02T08:13:14;21.13;;;8.00;;
12623;SDS011;6377;42.836;23.998;2022-11-02T08:15:47;17.53;;;7.67;;
12623;SDS011;6377;42.836;23.998;2022-11-02T08:18:16;16.07;;;6.90;;
12623;SDS011;6377;42.836;23.998;2022-11-02T08:20:45;13.47;;;7.63;;
12623;SDS011;6377;42.836;23.998;2022-11-02T08:23:13;14.70;;;8.07;;
12623;SDS011;6377;42.836;23.998;2022-11-02T08:25:42;13.60;;;7.50;;
12623;SDS011;6377;42.836;23.998;2022-11-02T08:28:12;21.73;;;7.00;;
12623;SDS011;6377;42.836;23.998;2022-11-02T08:30:40;17.63;;;6.43;;
12623;SDS011;6377;42.836;23.998;2022-11-02T08:33:11;14.07;;;6.43;;
12623;SDS011;6377;42.836;23.998;2022-11-02T08:35:42;14.60;;;6.00;;
12623;SDS011;6377;42.836;23.998;2022-11-02T08:38:10;15.80;;;5.70;;
12623;SDS011;6377;42.836;23.998;2022-11-02T08:40:38;13.47;;;6.53;;
12623;SDS011;6377;42.836;23.998;2022-11-02T08:43:06;16.38;;;6.80;;
12623;SDS011;6377;42.836;23.998;2022-11-02T08:45:35;18.98;;;8.55;;
12623;SDS011;6377;42.836;23.998;2022-11-02T08:48:05;14.93;;;8.73;;
12623;SDS011;6377;42.836;23.998;2022-11-02T08:50:35;17.27;;;6.95;;
12623;SDS011;6377;42.836;23.998;2022-11-02T08:53:03;12.38;;;7.13;;
12623;SDS011;6377;42.836;23.998;2022-11-02T08:55:31;15.55;;;6.70;;
12623;SDS011;6377;42.836;23.998;2022-11-02T08:57:59;17.63;;;7.82;;
12623;SDS011;6377;42.836;23.998;2022-11-02T09:00:27;11.98;;;6.18;;
12623;SDS011;6377;42.836;23.998;2022-11-02T09:03:00;10.73;;;5.50;;
12623;SDS011;6377;42.836;23.998;2022-11-02T09:05:28;8.50;;;4.63;;
12623;SDS011;6377;42.836;23.998;2022-11-02T09:07:59;7.85;;;4.60;;
12623;SDS011;6377;42.836;23.998;2022-11-02T09:10:29;15.70;;;4.78;;
12623;SDS011;6377;42.836;23.998;2022-11-02T09:12:59;12.27;;;3.85;;
12623;SDS011;6377;42.836;23.998;2022-11-02T09:15:27;9.75;;;3.60;;
12623;SDS011;6377;42.836;23.998;2022-11-02T09:17:55;10.55;;;3.30;;
12623;SDS011;6377;42.836;23.998;2022-11-02T09:20:23;11.43;;;3.10;;
12623;SDS011;6377;42.836;23.998;2022-11-02T09:22:50;10.93;;;3.50;;
12623;SDS011;6377;42.836;23.998;2022-11-02T09:25:20;11.02;;;3.42;;
12623;SDS011;6377;42.836;23.998;2022-11-02T09:27:50;7.22;;;2.45;;
12623;SDS011;6377;42.836;23.998;2022-11-02T09:30:18;11.90;;;2.90;;
12623;SDS011;6377;42.836;23.998;2022-11-02T09:32:52;10.95;;;3.00;;
12623;SDS011;6377;42.836;23.998;2022-11-02T09:35:20;14.25;;;3.20;;
12623;SDS011;6377;42.836;23.998;2022-11-02T09:37:48;10.20;;;3.05;;
12623;SDS011;6377;42.836;23.998;2022-11-02T09:40:16;8.13;;;2.80;;
12623;SDS011;6377;42.836;23.998;2022-11-02T09:42:51;9.43;;;3.50;;
12623;SDS011;6377;42.836;23.998;2022-11-02T09:45:24;7.45;;;3.13;;
12623;SDS011;6377;42.836;23.998;2022-11-02T09:47:55;11.93;;;3.80;;
12623;SDS011;6377;42.836;23.998;2022-11-02T09:50:29;12.85;;;4.15;;
12623;SDS011;6377;42.836;23.998;2022-11-02T09:53:04;13.18;;;5.05;;
12623;SDS011;6377;42.836;23.998;2022-11-02T09:55:36;9.10;;;3.60;;
12623;SDS011;6377;42.836;23.998;2022-11-02T09:58:12;7.88;;;3.28;;
12623;SDS011;6377;42.836;23.998;2022-11-02T10:00:44;8.35;;;2.70;;
12623;SDS011;6377;42.836;23.998;2022-11-02T10:03:19;7.03;;;3.13;;
12623;SDS011;6377;42.836;23.998;2022-11-02T10:05:54;9.73;;;3.50;;
12623;SDS011;6377;42.836;23.998;2022-11-02T10:08:26;8.02;;;3.55;;
12623;SDS011;6377;42.836;23.998;2022-11-02T10:11:02;12.73;;;3.50;;
12623;SDS011;6377;42.836;23.998;2022-11-02T10:13:40;7.53;;;3.65;;
12623;SDS011;6377;42.836;23.998;2022-11-02T10:16:12;7.70;;;3.00;;
12623;SDS011;6377;42.836;23.998;2022-11-02T10:18:43;5.68;;;2.70;;
12623;SDS011;6377;42.836;23.998;2022-11-02T10:21:15;14.05;;;3.42;;
12623;SDS011;6377;42.836;23.998;2022-11-02T10:23:46;11.05;;;3.47;;
12623;SDS011;6377;42.836;23.998;2022-11-02T10:26:17;7.63;;;3.15;;
12623;SDS011;6377;42.836;23.998;2022-11-02T10:28:49;7.65;;;3.10;;
12623;SDS011;6377;42.836;23.998;2022-11-02T10:31:24;11.98;;;3.25;;
12623;SDS011;6377;42.836;23.998;2022-11-02T10:33:56;10.30;;;2.78;;
12623;SDS011;6377;42.836;23.998;2022-11-02T10:36:38;8.88;;;2.97;;
12623;SDS011;6377;42.836;23.998;2022-11-02T10:39:17;11.18;;;3.15;;
12623;SDS011;6377;42.836;23.998;2022-11-02T10:41:57;10.38;;;3.22;;
12623;SDS011;6377;42.836;23.998;2022-11-02T10:44:53;11.50;;;3.28;;
12623;SDS011;6377;42.836;23.998;2022-11-02T10:47:29;6.78;;;2.83;;
12623;SDS011;6377;42.836;23.998;2022-11-02T10:50:10;7.90;;;3.55;;
12623;SDS011;6377;42.836;23.998;2022-11-02T10:52:45;8.50;;;3.33;;
12623;SDS011;6377;42.836;23.998;2022-11-02T10:55:18;8.63;;;3.22;;
12623;SDS011;6377;42.836;23.998;2022-11-02T10:57:50;7.07;;;2.88;;
12623;SDS011;6377;42.836;23.998;2022-11-02T11:00:23;7.53;;;3.30;;
12623;SDS011;6377;42.836;23.998;2022-11-02T11:03:06;6.65;;;3.17;;
12623;SDS011;6377;42.836;23.998;2022-11-02T11:05:35;14.75;;;3.47;;
12623;SDS011;6377;42.836;23.998;2022-11-02T11:08:19;11.50;;;3.70;;
12623;SDS011;6377;42.836;23.998;2022-11-02T11:11:10;8.57;;;3.15;;
12623;SDS011;6377;42.836;23.998;2022-11-02T11:13:39;58.20;;;42.28;;
12623;SDS011;6377;42.836;23.998;2022-11-02T11:16:10;23.08;;;15.07;;
12623;SDS011;6377;42.836;23.998;2022-11-02T11:18:38;17.17;;;4.57;;
12623;SDS011;6377;42.836;23.998;2022-11-02T11:21:06;12.88;;;3.53;;
12623;SDS011;6377;42.836;23.998;2022-11-02T11:23:33;12.18;;;4.05;;
12623;SDS011;6377;42.836;23.998;2022-11-02T11:26:01;9.85;;;3.38;;
12623;SDS011;6377;42.836;23.998;2022-11-02T11:28:31;8.20;;;3.50;;
12623;SDS011;6377;42.836;23.998;2022-11-02T11:31:12;12.15;;;3.50;;
12623;SDS011;6377;42.836;23.998;2022-11-02T11:33:43;8.70;;;3.63;;
12623;SDS011;6377;42.836;23.998;2022-11-02T11:36:19;14.13;;;3.25;;
12623;SDS011;6377;42.836;23.998;2022-11-02T11:38:48;9.65;;;3.67;;
12623;SDS011;6377;42.836;23.998;2022-11-02T11:41:18;9.63;;;3.10;;
12623;SDS011;6377;42.836;23.998;2022-11-02T11:43:46;9.85;;;3.88;;
12623;SDS011;6377;42.836;23.998;2022-11-02T11:46:18;9.60;;;3.58;;
12623;SDS011;6377;42.836;23.998;2022-11-02T11:48:47;6.28;;;3.33;;
12623;SDS011;6377;42.836;23.998;2022-11-02T11:51:24;10.10;;;4.00;;
12623;SDS011;6377;42.836;23.998;2022-11-02T11:54:05;10.68;;;3.70;;
12623;SDS011;6377;42.836;23.998;2022-11-02T11:56:54;13.38;;;3.55;;
12623;SDS011;6377;42.836;23.998;2022-11-02T11:59:23;6.75;;;3.67;;
12623;SDS011;6377;42.836;23.998;2022-11-02T12:01:55;9.07;;;3.78;;
12623;SDS011;6377;42.836;23.998;2022-11-02T12:04:28;10.15;;;3.38;;
12623;SDS011;6377;42.836;23.998;2022-11-02T12:07:04;11.55;;;3.10;;
12623;SDS011;6377;42.836;23.998;2022-11-02T12:09:45;8.85;;;3.33;;
12623;SDS011;6377;42.836;23.998;2022-11-02T12:12:25;7.10;;;3.00;;
12623;SDS011;6377;42.836;23.998;2022-11-02T12:15:03;8.43;;;3.42;;
12623;SDS011;6377;42.836;23.998;2022-11-02T12:17:45;10.07;;;3.40;;
12623;SDS011;6377;42.836;23.998;2022-11-02T12:20:30;9.43;;;3.05;;
12623;SDS011;6377;42.836;23.998;2022-11-02T12:23:16;7.72;;;3.55;;
12623;SDS011;6377;42.836;23.998;2022-11-02T12:26:07;6.75;;;3.22;;
12623;SDS011;6377;42.836;23.998;2022-11-02T12:28:45;8.95;;;3.55;;
12623;SDS011;6377;42.836;23.998;2022-11-02T12:31:24;7.47;;;3.65;;
12623;SDS011;6377;42.836;23.998;2022-11-02T12:34:06;15.50;;;3.42;;
12623;SDS011;6377;42.836;23.998;2022-11-02T12:36:56;10.95;;;3.67;;
12623;SDS011;6377;42.836;23.998;2022-11-02T12:39:33;9.05;;;3.72;;
12623;SDS011;6377;42.836;23.998;2022-11-02T12:42:19;8.95;;;3.33;;
12623;SDS011;6377;42.836;23.998;2022-11-02T12:44:58;5.78;;;2.67;;
12623;SDS011;6377;42.836;23.998;2022-11-02T12:47:38;6.60;;;3.05;;
12623;SDS011;6377;42.836;23.998;2022-11-02T12:50:19;7.90;;;2.97;;
12623;SDS011;6377;42.836;23.998;2022-11-02T12:52:53;9.73;;;4.00;;
12623;SDS011;6377;42.836;23.998;2022-11-02T12:55:32;7.70;;;3.55;;
12623;SDS011;6377;42.836;23.998;2022-11-02T12:58:04;9.57;;;3.60;;
12623;SDS011;6377;42.836;23.998;2022-11-02T13:00:36;7.93;;;3.05;;
12623;SDS011;6377;42.836;23.998;2022-11-02T13:03:18;6.20;;;3.20;;
12623;SDS011;6377;42.836;23.998;2022-11-02T13:05:55;5.68;;;3.50;;
12623;SDS011;6377;42.836;23.998;2022-11-02T13:08:32;10.23;;;3.00;;
12623;SDS011;6377;42.836;23.998;2022-11-02T13:11:06;7.70;;;3.03;;
12623;SDS011;6377;42.836;23.998;2022-11-02T13:13:40;12.35;;;4.55;;
12623;SDS011;6377;42.836;23.998;2022-11-02T13:16:10;10.63;;;4.13;;
12623;SDS011;6377;42.836;23.998;2022-11-02T13:18:43;6.93;;;3.28;;
12623;SDS011;6377;42.836;23.998;2022-11-02T13:21:21;8.05;;;3.00;;
12623;SDS011;6377;42.836;23.998;2022-11-02T13:23:57;7.97;;;3.38;;
12623;SDS011;6377;42.836;23.998;2022-11-02T13:26:26;9.77;;;2.70;;
12623;SDS011;6377;42.836;23.998;2022-11-02T13:28:56;9.85;;;3.08;;
12623;SDS011;6377;42.836;23.998;2022-11-02T13:31:29;10.05;;;3.17;;
12623;SDS011;6377;42.836;23.998;2022-11-02T13:34:00;7.47;;;3.15;;
12623;SDS011;6377;42.836;23.998;2022-11-02T13:36:32;6.25;;;2.78;;
12623;SDS011;6377;42.836;23.998;2022-11-02T13:39:04;9.82;;;3.20;;
12623;SDS011;6377;42.836;23.998;2022-11-02T13:41:40;8.02;;;3.13;;
12623;SDS011;6377;42.836;23.998;2022-11-02T13:44:32;7.15;;;3.42;;
12623;SDS011;6377;42.836;23.998;2022-11-02T13:47:19;5.57;;;3.10;;
12623;SDS011;6377;42.836;23.998;2022-11-02T13:50:01;10.18;;;3.35;;
12623;SDS011;6377;42.836;23.998;2022-11-02T13:52:33;8.73;;;3.20;;
12623;SDS011;6377;42.836;23.998;2022-11-02T13:55:05;6.93;;;3.03;;
12623;SDS011;6377;42.836;23.998;2022-11-02T13:57:40;7.97;;;2.85;;
12623;SDS011;6377;42.836;23.998;2022-11-02T14:00:25;10.63;;;3.47;;
12623;SDS011;6377;42.836;23.998;2022-11-02T14:02:56;5.60;;;3.00;;
12623;SDS011;6377;42.836;23.998;2022-11-02T14:05:30;6.57;;;3.20;;
12623;SDS011;6377;42.836;23.998;2022-11-02T14:08:03;7.00;;;3.15;;
12623;SDS011;6377;42.836;23.998;2022-11-02T14:10:35;11.52;;;3.28;;
12623;SDS011;6377;42.836;23.998;2022-11-02T14:13:03;5.30;;;3.13;;
12623;SDS011;6377;42.836;23.998;2022-11-02T14:18:15;5.53;;;2.90;;
12623;SDS011;6377;42.836;23.998;2022-11-02T14:20:55;7.38;;;2.85;;
12623;SDS011;6377;42.836;23.998;2022-11-02T14:23:33;12.30;;;3.30;;
12623;SDS011;6377;42.836;23.998;2022-11-02T14:26:03;9.75;;;3.05;;
12623;SDS011;6377;42.836;23.998;2022-11-02T14:28:39;8.48;;;3.30;;
12623;SDS011;6377;42.836;23.998;2022-11-02T14:34:09;6.07;;;2.85;;
12623;SDS011;6377;42.836;23.998;2022-11-02T14:37:18;12.82;;;3.20;;
12623;SDS011;6377;42.836;23.998;2022-11-02T14:39:59;8.48;;;3.60;;
12623;SDS011;6377;42.836;23.998;2022-11-02T14:45:50;11.05;;;3.40;;
12623;SDS011;6377;42.836;23.998;2022-11-02T14:48:31;8.82;;;3.45;;
12623;SDS011;6377;42.836;23.998;2022-11-02T14:51:12;11.73;;;3.25;;
12623;SDS011;6377;42.836;23.998;2022-11-02T14:53:44;9.90;;;3.58;;
12623;SDS011;6377;42.836;23.998;2022-11-02T14:56:15;9.88;;;3.55;;
12623;SDS011;6377;42.836;23.998;2022-11-02T14:58:47;43.53;;;31.10;;
12623;SDS011;6377;42.836;23.998;2022-11-02T15:01:18;14.13;;;6.95;;
12623;SDS011;6377;42.836;23.998;2022-11-02T15:03:46;21.77;;;9.02;;
12623;SDS011;6377;42.836;23.998;2022-11-02T15:06:16;33.40;;;15.00;;
12623;SDS011;6377;42.836;23.998;2022-11-02T15:08:50;112.30;;;70.38;;
12623;SDS011;6377;42.836;23.998;2022-11-02T15:20:27;41.17;;;21.85;;